createdAt,value
2018-08-07T21:26:13.418Z,7.77
2018-08-07T21:28:41.051Z,7.40
2018-08-07T21:31:08.733Z,6.80
2018-08-07T21:33:36.294Z,6.73
2018-08-07T21:36:04.284Z,6.60
2018-08-07T21:38:31.667Z,6.43
2018-08-07T21:40:59.057Z,6.00
2018-08-07T21:43:26.421Z,6.23
2018-08-07T21:45:53.736Z,6.37
2018-08-07T21:48:21.086Z,5.53
2018-08-07T21:50:48.733Z,6.47
2018-08-07T21:53:16.183Z,6.20
2018-08-07T21:55:44.419Z,6.50
2018-08-07T21:58:11.843Z,5.63
2018-08-07T22:00:44.885Z,5.30
2018-08-07T22:03:12.299Z,5.13
2018-08-07T22:05:39.830Z,5.57
2018-08-07T22:08:08.010Z,5.77
2018-08-07T22:10:35.417Z,5.83
2018-08-07T22:13:02.836Z,6.37
2018-08-07T22:15:30.187Z,5.63
2018-08-07T22:17:57.659Z,5.80
2018-08-07T22:20:25.351Z,5.53
2018-08-07T22:22:52.899Z,5.77
2018-08-07T22:25:20.300Z,5.90
2018-08-07T22:27:47.767Z,5.23
2018-08-07T22:30:17.625Z,5.97
2018-08-07T22:32:45.009Z,6.90
2018-08-07T22:35:12.346Z,6.33
2018-08-07T22:37:39.829Z,6.33
2018-08-07T22:40:07.511Z,6.53
2018-08-07T22:42:35.970Z,6.00
2018-08-07T22:45:04.235Z,6.50
2018-08-07T22:47:33.250Z,6.43
2018-08-07T22:50:00.845Z,6.97
2018-08-07T22:52:28.346Z,6.60
2018-08-07T22:54:55.830Z,7.43
2018-08-07T22:57:23.149Z,7.60
2018-08-07T22:59:50.638Z,8.10
2018-08-07T23:02:17.976Z,8.57
2018-08-07T23:04:45.440Z,8.70
2018-08-07T23:07:12.894Z,8.67
2018-08-07T23:09:40.330Z,8.67
2018-08-07T23:12:07.721Z,7.57
2018-08-07T23:14:35.118Z,7.73
2018-08-07T23:17:02.500Z,8.57
2018-08-07T23:19:29.952Z,9.20
2018-08-07T23:21:57.381Z,10.23
2018-08-07T23:24:24.881Z,11.00
2018-08-07T23:26:52.356Z,9.87
2018-08-07T23:29:19.671Z,9.33
2018-08-07T23:31:47.602Z,9.20
2018-08-07T23:34:14.931Z,9.10
2018-08-07T23:36:42.257Z,9.63
2018-08-07T23:39:10.144Z,9.80
2018-08-07T23:41:37.512Z,9.40
2018-08-07T23:44:04.877Z,10.00
2018-08-07T23:46:32.305Z,9.57
2018-08-07T23:48:59.721Z,9.77
2018-08-07T23:51:27.077Z,9.83
2018-08-07T23:53:54.704Z,11.00
2018-08-07T23:56:21.996Z,10.23
2018-08-07T23:58:49.582Z,9.63
